createdAt,value
2019-01-23T00:01:44.918Z,26.63
2019-01-23T00:04:15.185Z,28.23
2019-01-23T00:06:45.436Z,24.30
2019-01-23T00:09:15.739Z,26.35
2019-01-23T00:11:46.006Z,23.40
2019-01-23T00:14:16.255Z,25.20
2019-01-23T00:16:46.543Z,27.40
2019-01-23T00:19:16.847Z,25.72
2019-01-23T00:21:47.118Z,26.20
2019-01-23T00:24:17.387Z,25.80
2019-01-23T00:26:47.705Z,27.82
2019-01-23T00:29:18.055Z,27.55
2019-01-23T00:31:48.376Z,23.30
2019-01-23T00:34:18.677Z,25.77
2019-01-23T00:36:48.927Z,30.27
2019-01-23T00:39:19.206Z,26.60
2019-01-23T00:41:50.932Z,24.92
2019-01-23T00:44:21.211Z,23.92
2019-01-23T00:46:51.492Z,23.30
2019-01-23T00:49:21.766Z,22.90
2019-01-23T00:51:52.056Z,23.02
2019-01-23T00:54:22.594Z,23.57
2019-01-23T00:56:52.888Z,22.98
2019-01-23T00:59:23.149Z,24.90
2019-01-23T01:01:53.571Z,26.45
2019-01-23T01:04:23.817Z,22.40
2019-01-23T01:06:54.152Z,27.27
2019-01-23T01:09:24.680Z,23.10
2019-01-23T01:11:54.926Z,22.82
2019-01-23T01:14:25.175Z,23.32
2019-01-23T01:16:55.446Z,23.07
2019-01-23T01:19:25.703Z,21.93
2019-01-23T01:21:55.984Z,20.88
2019-01-23T01:24:26.250Z,21.97
2019-01-23T01:26:56.528Z,21.40
2019-01-23T01:29:26.790Z,21.35
2019-01-23T01:31:57.046Z,22.57
2019-01-23T01:34:27.313Z,20.10
2019-01-23T01:36:57.566Z,20.75
2019-01-23T01:39:27.807Z,22.85
2019-01-23T01:41:58.096Z,22.98
2019-01-23T01:44:28.386Z,23.22
2019-01-23T01:46:58.713Z,24.67
2019-01-23T01:49:29.028Z,22.37
2019-01-23T01:51:59.284Z,21.75
2019-01-23T01:54:29.573Z,20.90
2019-01-23T01:56:59.894Z,22.80
2019-01-23T01:59:30.172Z,23.18
2019-01-23T02:02:00.454Z,20.37
2019-01-23T02:04:31.817Z,21.62
2019-01-23T02:07:02.123Z,22.20
2019-01-23T02:09:35.509Z,22.45
2019-01-23T02:12:04.615Z,20.00
2019-01-23T02:14:35.977Z,18.52
2019-01-23T02:17:06.219Z,20.57
2019-01-23T02:19:36.480Z,19.00
2019-01-23T02:22:06.734Z,19.60
2019-01-23T02:24:37.031Z,17.37
2019-01-23T02:27:07.250Z,21.55
2019-01-23T02:29:37.530Z,22.05
2019-01-23T02:32:07.803Z,21.60
2019-01-23T02:34:38.058Z,20.82
2019-01-23T02:37:08.360Z,21.65
2019-01-23T02:39:38.622Z,21.00
2019-01-23T02:42:08.888Z,20.77
2019-01-23T02:44:39.188Z,21.05
2019-01-23T02:47:09.445Z,23.07
2019-01-23T02:49:39.688Z,22.85
2019-01-23T02:52:09.961Z,22.17
2019-01-23T02:54:40.222Z,20.62
2019-01-23T02:59:45.677Z,20.80
2019-01-23T03:02:15.930Z,22.47
2019-01-23T03:04:46.175Z,21.65
2019-01-23T03:07:16.449Z,20.20
2019-01-23T03:09:46.727Z,21.48
2019-01-23T03:12:16.996Z,22.20
2019-01-23T03:14:47.253Z,22.15
2019-01-23T03:17:17.531Z,20.80
2019-01-23T03:19:47.915Z,21.87
2019-01-23T03:22:18.153Z,22.37
2019-01-23T03:24:48.424Z,22.45
2019-01-23T03:27:18.699Z,22.52
2019-01-23T03:29:48.945Z,21.27
2019-01-23T03:32:19.275Z,21.43
2019-01-23T03:34:49.516Z,20.77
2019-01-23T03:37:19.769Z,20.82
2019-01-23T03:39:50.027Z,22.02
2019-01-23T03:42:20.295Z,22.15
2019-01-23T03:44:50.526Z,21.00
2019-01-23T03:47:20.781Z,21.07
2019-01-23T03:49:51.065Z,20.10
2019-01-23T03:52:21.342Z,21.73
2019-01-23T03:54:51.602Z,21.90
2019-01-23T03:57:21.896Z,20.72
2019-01-23T03:59:52.150Z,19.55
2019-01-23T04:02:22.414Z,20.45
2019-01-23T04:04:52.663Z,22.30
2019-01-23T04:07:23.000Z,20.48
2019-01-23T04:09:53.236Z,21.02
2019-01-23T04:12:23.569Z,19.45
2019-01-23T04:14:53.799Z,20.72
2019-01-23T04:17:24.068Z,19.87
2019-01-23T04:19:54.321Z,18.65
2019-01-23T04:22:24.599Z,19.98
2019-01-23T04:24:54.878Z,20.08
2019-01-23T04:27:25.158Z,18.52
2019-01-23T04:29:55.394Z,19.80
2019-01-23T04:32:25.695Z,20.07
2019-01-23T04:34:55.941Z,19.80
2019-01-23T04:37:26.253Z,19.80
2019-01-23T04:39:56.486Z,21.02
2019-01-23T04:42:26.757Z,18.27
2019-01-23T04:44:57.034Z,20.27
2019-01-23T04:47:27.326Z,20.27
2019-01-23T04:49:57.588Z,19.45
2019-01-23T04:52:45.832Z,19.40
2019-01-23T04:55:16.133Z,18.95
2019-01-23T04:57:46.428Z,19.70
2019-01-23T05:00:19.418Z,19.90
2019-01-23T05:02:50.609Z,20.37
2019-01-23T05:05:21.101Z,20.52
2019-01-23T05:07:51.390Z,21.55
2019-01-23T05:10:21.724Z,20.65
2019-01-23T05:12:52.008Z,19.62
2019-01-23T05:15:22.318Z,21.00
2019-01-23T05:17:52.600Z,18.55
2019-01-23T05:20:22.884Z,19.60
2019-01-23T05:22:53.109Z,20.97
2019-01-23T05:25:23.398Z,19.82
2019-01-23T05:27:53.650Z,18.70
2019-01-23T05:30:24.978Z,18.55
2019-01-23T05:32:55.234Z,17.98
2019-01-23T05:35:25.499Z,16.97
2019-01-23T05:37:56.965Z,20.15
2019-01-23T05:40:27.230Z,20.40
2019-01-23T05:42:57.506Z,22.15
2019-01-23T05:45:27.771Z,20.65
2019-01-23T05:47:58.431Z,20.50
2019-01-23T05:50:28.700Z,20.90
2019-01-23T05:52:58.968Z,19.87
2019-01-23T05:55:29.274Z,19.50
2019-01-23T05:57:59.552Z,19.87
2019-01-23T06:00:29.840Z,19.37
2019-01-23T06:03:00.111Z,19.67
2019-01-23T06:05:30.379Z,20.12
2019-01-23T06:08:00.791Z,19.80
2019-01-23T06:10:31.076Z,18.95
2019-01-23T06:13:01.358Z,18.75
2019-01-23T06:15:31.631Z,20.85
2019-01-23T06:18:01.990Z,21.15
2019-01-23T06:20:32.289Z,22.25
2019-01-23T06:23:02.591Z,20.15
2019-01-23T06:25:32.875Z,21.02
2019-01-23T06:28:03.208Z,20.65
2019-01-23T06:30:33.493Z,20.73
2019-01-23T06:33:22.907Z,20.02
2019-01-23T06:35:53.217Z,20.10
2019-01-23T06:38:23.498Z,20.02
2019-01-23T06:40:53.786Z,19.87
2019-01-23T06:43:24.115Z,19.55
2019-01-23T06:45:54.399Z,19.43
2019-01-23T06:48:24.677Z,21.10
2019-01-23T06:50:54.934Z,19.40
2019-01-23T06:53:25.302Z,22.22
2019-01-23T06:55:55.592Z,23.70
2019-01-23T06:58:25.848Z,25.57
2019-01-23T07:00:56.128Z,25.20
2019-01-23T07:03:26.414Z,24.30
2019-01-23T07:05:56.705Z,26.00
2019-01-23T07:08:27.043Z,24.35
2019-01-23T07:10:57.298Z,29.20
2019-01-23T07:13:28.783Z,29.52
2019-01-23T07:15:59.078Z,30.73
2019-01-23T07:18:29.377Z,27.45
2019-01-23T07:20:59.668Z,28.07
2019-01-23T07:23:29.937Z,27.73
2019-01-23T07:26:00.216Z,29.00
2019-01-23T07:28:30.506Z,31.12
2019-01-23T07:31:00.779Z,32.10
2019-01-23T07:33:31.057Z,32.75
2019-01-23T07:36:01.407Z,30.82
2019-01-23T07:38:31.692Z,29.70
2019-01-23T07:41:02.025Z,32.17
2019-01-23T07:43:32.302Z,31.50
2019-01-23T07:46:02.628Z,30.20
2019-01-23T07:48:32.890Z,32.60
2019-01-23T07:51:03.205Z,29.63
2019-01-23T07:53:33.482Z,29.55
2019-01-23T07:56:03.836Z,31.57
2019-01-23T07:58:34.147Z,29.90
2019-01-23T08:01:04.439Z,30.65
2019-01-23T08:03:34.730Z,30.50
2019-01-23T08:06:05.043Z,31.80
2019-01-23T08:08:35.319Z,28.83
2019-01-23T08:11:05.710Z,31.20
2019-01-23T08:13:36.072Z,30.23
2019-01-23T08:16:06.529Z,28.25
2019-01-23T08:18:36.838Z,27.42
2019-01-23T08:21:07.159Z,29.07
2019-01-23T08:23:37.496Z,29.48
2019-01-23T08:26:07.852Z,27.45
2019-01-23T08:28:38.127Z,30.40
2019-01-23T08:31:08.407Z,29.52
2019-01-23T08:33:38.722Z,29.37
2019-01-23T08:36:09.005Z,28.12
2019-01-23T08:38:39.320Z,30.48
2019-01-23T08:41:09.622Z,33.30
2019-01-23T08:43:39.905Z,36.20
2019-01-23T08:46:10.174Z,33.77
2019-01-23T08:48:40.438Z,30.60
2019-01-23T08:51:10.769Z,27.62
2019-01-23T08:53:41.040Z,28.90
2019-01-23T08:56:11.428Z,28.75
2019-01-23T08:58:41.769Z,29.15
2019-01-23T09:01:15.261Z,28.70
2019-01-23T09:03:45.552Z,28.70
2019-01-23T09:06:15.859Z,27.32
2019-01-23T09:08:46.248Z,29.02
2019-01-23T09:11:16.528Z,27.40
2019-01-23T09:13:46.853Z,28.27
2019-01-23T09:16:17.152Z,27.80
2019-01-23T09:18:47.426Z,25.88
2019-01-23T09:21:18.349Z,26.17
2019-01-23T09:23:48.697Z,29.57
2019-01-23T09:26:18.961Z,30.32
2019-01-23T09:28:49.260Z,28.87
2019-01-23T09:32:15.539Z,27.70
2019-01-23T09:35:20.832Z,27.58
2019-01-23T09:38:06.876Z,26.35
2019-01-23T09:41:24.626Z,28.25
2019-01-23T09:44:30.799Z,28.70
2019-01-23T09:47:32.330Z,28.60
2019-01-23T09:50:39.525Z,28.92
2019-01-23T09:53:29.717Z,27.05
2019-01-23T09:56:00.047Z,29.30
2019-01-23T09:58:30.388Z,27.90
2019-01-23T10:01:00.802Z,28.70
2019-01-23T10:03:31.090Z,26.97
2019-01-23T10:06:01.467Z,26.23
2019-01-23T10:08:31.746Z,29.00
2019-01-23T10:11:02.039Z,26.57
2019-01-23T10:13:32.322Z,27.10
2019-01-23T10:16:09.495Z,26.40
2019-01-23T10:18:39.939Z,27.87
2019-01-23T10:21:10.246Z,27.40
2019-01-23T10:23:40.563Z,27.13
2019-01-23T10:26:10.846Z,27.25
2019-01-23T10:28:41.160Z,28.55
2019-01-23T10:31:11.457Z,26.80
2019-01-23T10:33:41.881Z,27.90
2019-01-23T10:36:12.186Z,26.20
2019-01-23T10:38:42.504Z,26.52
2019-01-23T10:41:12.795Z,24.15
2019-01-23T10:43:43.085Z,27.17
2019-01-23T10:46:13.383Z,28.27
2019-01-23T10:48:43.664Z,27.07
2019-01-23T10:51:13.967Z,28.23
2019-01-23T10:53:44.594Z,25.40
2019-01-23T10:56:14.927Z,27.77
2019-01-23T10:58:45.307Z,29.30
2019-01-23T11:01:15.735Z,27.50
2019-01-23T11:03:46.760Z,26.40
2019-01-23T11:06:17.126Z,27.40
2019-01-23T11:08:48.163Z,25.02
2019-01-23T11:11:18.431Z,28.27
2019-01-23T11:13:48.682Z,25.43
2019-01-23T11:16:19.017Z,25.17
2019-01-23T11:18:49.312Z,28.25
2019-01-23T11:21:19.688Z,28.77
2019-01-23T11:23:49.963Z,24.37
2019-01-23T11:26:20.248Z,25.12
2019-01-23T11:28:50.789Z,24.45
2019-01-23T11:31:21.115Z,23.37
2019-01-23T11:33:51.403Z,24.90
2019-01-23T11:36:21.687Z,26.23
2019-01-23T11:38:52.628Z,25.40
2019-01-23T11:41:22.997Z,25.32
2019-01-23T11:43:53.320Z,25.92
2019-01-23T11:46:23.627Z,27.10
2019-01-23T11:48:53.885Z,27.87
2019-01-23T11:51:24.560Z,27.55
2019-01-23T11:53:56.966Z,25.17
2019-01-23T11:56:27.881Z,23.50
2019-01-23T11:58:58.244Z,24.30
2019-01-23T12:01:28.552Z,25.30
2019-01-23T12:03:58.778Z,26.95
2019-01-23T12:06:29.063Z,26.05
2019-01-23T12:08:59.338Z,24.02
2019-01-23T12:11:29.656Z,25.15
2019-01-23T12:13:59.983Z,26.00
2019-01-23T12:16:30.262Z,25.67
2019-01-23T12:19:00.530Z,25.12
2019-01-23T12:21:30.856Z,26.20
2019-01-23T12:24:01.161Z,26.50
2019-01-23T12:26:31.527Z,23.35
2019-01-23T12:29:01.763Z,25.30
2019-01-23T12:31:35.178Z,24.27
2019-01-23T12:34:04.189Z,24.35
2019-01-23T12:36:34.451Z,25.30
2019-01-23T12:39:06.966Z,23.65
2019-01-23T12:41:37.259Z,23.20
2019-01-23T12:44:07.793Z,25.40
2019-01-23T12:46:38.081Z,23.03
2019-01-23T12:49:08.332Z,24.85
2019-01-23T12:51:38.626Z,26.40
2019-01-23T12:54:10.333Z,27.98
2019-01-23T12:56:40.626Z,25.62
2019-01-23T12:59:10.959Z,26.70
2019-01-23T13:01:42.212Z,24.97
2019-01-23T13:04:12.695Z,24.63
2019-01-23T13:06:43.280Z,25.20
2019-01-23T13:09:13.651Z,24.65
2019-01-23T13:11:43.966Z,23.10
2019-01-23T13:14:14.264Z,24.18
2019-01-23T13:16:44.607Z,23.40
2019-01-23T13:19:14.910Z,22.17
2019-01-23T13:21:45.230Z,21.95
2019-01-23T13:24:15.500Z,21.82
2019-01-23T13:26:45.844Z,21.75
2019-01-23T13:29:16.104Z,22.77
2019-01-23T13:31:49.188Z,20.82
2019-01-23T13:34:18.407Z,19.92
2019-01-23T13:36:48.721Z,21.45
2019-01-23T13:39:20.100Z,20.97
2019-01-23T13:41:50.502Z,22.17
2019-01-23T13:44:20.791Z,21.37
2019-01-23T13:46:51.095Z,19.30
2019-01-23T13:49:21.481Z,21.05
2019-01-23T13:51:51.816Z,22.65
2019-01-23T13:54:22.103Z,19.45
2019-01-23T13:56:52.402Z,21.45
2019-01-23T13:59:22.691Z,23.00
2019-01-23T14:01:56.416Z,22.03
2019-01-23T14:04:25.058Z,21.82
2019-01-23T14:06:55.356Z,22.30
2019-01-23T14:09:25.701Z,23.57
2019-01-23T14:11:55.974Z,22.65
2019-01-23T14:14:26.325Z,22.55
2019-01-23T14:16:56.672Z,20.50
2019-01-23T14:19:26.921Z,21.75
2019-01-23T14:21:57.363Z,21.93
2019-01-23T14:24:27.657Z,21.45
2019-01-23T14:26:57.990Z,22.27
2019-01-23T14:29:28.454Z,24.18
2019-01-23T14:32:03.393Z,19.67
2019-01-23T14:34:31.495Z,21.48
2019-01-23T14:37:01.824Z,22.65
2019-01-23T14:39:32.095Z,21.90
2019-01-23T14:42:02.430Z,21.62
2019-01-23T14:44:32.736Z,20.12
2019-01-23T14:47:03.042Z,22.70
2019-01-23T14:49:33.343Z,22.90
2019-01-23T14:52:05.118Z,22.22
2019-01-23T14:54:35.425Z,19.85
2019-01-23T14:57:05.980Z,19.45
2019-01-23T14:59:36.292Z,20.72
2019-01-23T15:02:10.393Z,22.97
2019-01-23T15:04:38.615Z,20.95
2019-01-23T15:07:08.934Z,22.25
2019-01-23T15:09:39.229Z,20.37
2019-01-23T15:12:09.541Z,19.90
2019-01-23T15:14:39.846Z,17.95
2019-01-23T15:17:10.166Z,24.20
2019-01-23T15:19:40.455Z,21.55
2019-01-23T15:22:10.774Z,20.40
2019-01-23T15:24:41.139Z,18.70
2019-01-23T15:27:11.398Z,20.70
2019-01-23T15:29:41.758Z,28.77
2019-01-23T15:32:17.256Z,27.60
2019-01-23T15:34:44.136Z,25.45
2019-01-23T15:37:14.454Z,20.30
2019-01-23T15:39:44.762Z,19.80
2019-01-23T15:42:15.513Z,22.75
2019-01-23T15:44:46.366Z,19.77
2019-01-23T15:47:17.162Z,19.87
2019-01-23T15:49:48.002Z,20.95
2019-01-23T15:52:18.253Z,17.02
2019-01-23T15:54:49.303Z,19.67
2019-01-23T15:57:20.274Z,20.45
2019-01-23T15:59:52.551Z,19.85
2019-01-23T16:02:24.457Z,18.07
2019-01-23T16:04:54.825Z,17.50
2019-01-23T16:07:25.076Z,19.30
2019-01-23T16:09:55.397Z,16.50
2019-01-23T16:12:25.673Z,17.10
2019-01-23T16:14:55.972Z,17.75
2019-01-23T16:17:26.507Z,19.00
2019-01-23T16:19:56.873Z,18.42
2019-01-23T16:22:27.177Z,15.55
2019-01-23T16:24:57.563Z,19.10
2019-01-23T16:27:28.187Z,17.27
2019-01-23T16:30:17.464Z,20.35
2019-01-23T16:32:47.733Z,19.55
2019-01-23T16:35:17.994Z,17.15
2019-01-23T16:37:48.447Z,17.73
2019-01-23T16:40:18.789Z,18.17
2019-01-23T16:42:49.703Z,18.10
2019-01-23T16:45:20.999Z,17.40
2019-01-23T16:47:51.763Z,18.48
2019-01-23T16:50:23.086Z,17.45
2019-01-23T16:52:54.041Z,15.48
2019-01-23T16:55:24.524Z,19.27
2019-01-23T16:57:55.492Z,18.62
2019-01-23T17:00:26.775Z,18.25
2019-01-23T17:05:29.333Z,17.73
2019-01-23T17:08:01.302Z,17.75
2019-01-23T17:10:31.682Z,17.62
2019-01-23T17:13:01.978Z,16.93
2019-01-23T17:15:32.317Z,17.65
2019-01-23T17:18:02.691Z,17.60
2019-01-23T17:20:39.002Z,18.20
2019-01-23T17:23:09.322Z,17.55
2019-01-23T17:25:39.634Z,18.32
2019-01-23T17:28:11.369Z,16.10
2019-01-23T17:30:41.702Z,19.70
2019-01-23T17:33:12.366Z,17.40
2019-01-23T17:35:42.773Z,18.10
2019-01-23T17:38:13.082Z,19.77
2019-01-23T17:40:43.420Z,20.05
2019-01-23T17:43:14.773Z,20.12
2019-01-23T17:45:45.121Z,19.10
2019-01-23T17:48:16.134Z,18.57
2019-01-23T17:50:46.547Z,18.87
2019-01-23T17:53:16.859Z,22.32
2019-01-23T17:55:47.154Z,18.55
2019-01-23T17:58:17.463Z,19.52
2019-01-23T18:00:54.990Z,19.63
2019-01-23T18:03:25.337Z,22.15
2019-01-23T18:05:55.716Z,21.07
2019-01-23T18:08:26.071Z,18.80
2019-01-23T18:10:56.516Z,20.32
2019-01-23T18:13:26.859Z,22.93
2019-01-23T18:16:05.741Z,21.03
2019-01-23T18:18:36.052Z,22.25
2019-01-23T18:21:06.520Z,18.95
2019-01-23T18:23:36.835Z,20.97
2019-01-23T18:26:07.241Z,19.82
2019-01-23T18:28:37.552Z,20.95
2019-01-23T18:31:35.791Z,20.17
2019-01-23T18:34:33.997Z,20.23
2019-01-23T18:37:21.055Z,19.35
2019-01-23T18:40:24.857Z,19.17
2019-01-23T18:43:21.535Z,21.45
2019-01-23T18:46:05.587Z,21.23
2019-01-23T18:48:57.695Z,20.30
2019-01-23T18:51:46.302Z,19.35
2019-01-23T18:54:16.682Z,22.65
2019-01-23T18:56:46.976Z,22.07
2019-01-23T18:59:17.359Z,27.62
2019-01-23T19:01:47.665Z,25.47
2019-01-23T19:04:18.038Z,22.35
2019-01-23T19:06:48.315Z,22.27
2019-01-23T19:09:18.671Z,23.10
2019-01-23T19:11:48.966Z,23.38
2019-01-23T19:14:24.446Z,21.57
2019-01-23T19:16:51.247Z,24.60
2019-01-23T19:19:21.593Z,21.70
2019-01-23T19:21:55.153Z,22.48
2019-01-23T19:24:23.869Z,23.02
2019-01-23T19:26:54.244Z,21.90
2019-01-23T19:29:24.534Z,22.15
2019-01-23T19:31:55.547Z,24.87
2019-01-23T19:34:26.036Z,24.25
2019-01-23T19:36:57.824Z,22.55
2019-01-23T19:39:28.143Z,21.05
2019-01-23T19:41:58.469Z,26.40
2019-01-23T19:44:28.828Z,23.32
2019-01-23T19:46:59.137Z,23.77
2019-01-23T19:49:29.483Z,24.15
2019-01-23T19:51:59.779Z,24.60
2019-01-23T19:54:30.132Z,23.98
2019-01-23T19:57:00.492Z,22.82
2019-01-23T19:59:30.805Z,24.02
2019-01-23T20:02:01.140Z,23.87
2019-01-23T20:04:31.495Z,24.82
2019-01-23T20:07:01.833Z,25.77
2019-01-23T20:09:32.235Z,25.37
2019-01-23T20:12:02.602Z,24.77
2019-01-23T20:14:32.965Z,26.48
2019-01-23T20:17:03.341Z,23.20
2019-01-23T20:19:34.378Z,24.70
2019-01-23T20:22:04.815Z,24.70
2019-01-23T20:24:35.175Z,25.80
2019-01-23T20:27:06.372Z,26.70
2019-01-23T20:29:36.739Z,24.45
2019-01-23T20:32:07.276Z,26.43
2019-01-23T20:34:37.598Z,25.88
2019-01-23T20:37:07.953Z,25.97
2019-01-23T20:39:38.284Z,26.87
2019-01-23T20:42:08.690Z,25.40
2019-01-23T20:44:39.045Z,25.17
2019-01-23T20:47:09.348Z,25.55
2019-01-23T20:49:39.725Z,24.65
2019-01-23T20:52:10.272Z,24.87
2019-01-23T20:54:40.618Z,25.12
2019-01-23T20:57:10.937Z,26.23
2019-01-23T20:59:41.283Z,24.82
2019-01-23T21:02:11.600Z,25.20
2019-01-23T21:04:41.905Z,23.75
2019-01-23T21:07:12.257Z,24.85
2019-01-23T21:09:42.586Z,22.40
2019-01-23T21:12:18.621Z,23.00
2019-01-23T21:14:44.966Z,23.50
2019-01-23T21:17:15.314Z,23.87
2019-01-23T21:19:45.601Z,22.75
2019-01-23T21:22:15.906Z,24.70
2019-01-23T21:24:46.234Z,25.00
2019-01-23T21:27:16.652Z,23.02
2019-01-23T21:29:46.904Z,24.45
2019-01-23T21:32:17.237Z,24.03
2019-01-23T21:34:47.566Z,23.70
2019-01-23T21:37:17.888Z,23.40
2019-01-23T21:39:48.231Z,23.57
2019-01-23T21:42:18.534Z,23.32
2019-01-23T21:44:48.919Z,23.57
2019-01-23T21:47:19.208Z,24.47
2019-01-23T21:49:49.541Z,23.05
2019-01-23T21:52:19.919Z,23.98
2019-01-23T21:54:51.356Z,23.42
2019-01-23T21:57:21.717Z,22.00
2019-01-23T21:59:52.086Z,28.95
2019-01-23T22:02:23.029Z,33.27
2019-01-23T22:04:53.401Z,27.13
2019-01-23T22:07:23.743Z,25.97
2019-01-23T22:09:54.024Z,24.45
2019-01-23T22:12:24.268Z,25.37
2019-01-23T22:14:54.628Z,23.02
2019-01-23T22:17:24.945Z,26.27
2019-01-23T22:19:55.267Z,23.70
2019-01-23T22:22:25.536Z,24.12
2019-01-23T22:24:55.862Z,22.95
2019-01-23T22:27:26.125Z,25.62
2019-01-23T22:29:56.436Z,24.52
2019-01-23T22:32:26.703Z,24.40
2019-01-23T22:34:56.965Z,22.20
2019-01-23T22:37:27.220Z,22.25
2019-01-23T22:39:57.505Z,23.50
2019-01-23T22:42:27.763Z,25.57
2019-01-23T22:44:58.306Z,24.25
2019-01-23T22:47:28.576Z,22.07
2019-01-23T22:49:58.834Z,25.25
2019-01-23T22:52:30.747Z,24.18
2019-01-23T22:55:01.024Z,23.52
2019-01-23T22:57:31.350Z,23.35
2019-01-23T23:00:01.612Z,24.05
2019-01-23T23:02:31.892Z,23.80
2019-01-23T23:05:02.236Z,24.00
2019-01-23T23:07:32.504Z,24.98
2019-01-23T23:10:02.805Z,24.40
2019-01-23T23:12:33.062Z,21.75
2019-01-23T23:15:03.355Z,25.92
2019-01-23T23:17:33.642Z,23.20
2019-01-23T23:20:04.409Z,21.65
2019-01-23T23:22:34.690Z,25.85
2019-01-23T23:25:05.400Z,24.00
2019-01-23T23:27:39.342Z,23.22
2019-01-23T23:30:10.643Z,23.22
2019-01-23T23:32:40.973Z,24.43
2019-01-23T23:35:11.246Z,23.57
2019-01-23T23:37:41.542Z,22.90
2019-01-23T23:40:12.200Z,21.12
2019-01-23T23:42:42.478Z,22.90
2019-01-23T23:45:13.748Z,22.62
2019-01-23T23:47:44.030Z,22.65
2019-01-23T23:50:14.504Z,23.40
2019-01-23T23:52:44.940Z,23.00
2019-01-23T23:55:15.910Z,21.55
2019-01-23T23:57:46.232Z,23.22
